sensor_id;sensor_type;location;lat;lon;timestamp;P1;durP1;ratioP1;P2;durP2;ratioP2
11500;SDS011;5807;51.606;7.624;2022-12-07T00:00:52;38.67;;;25.83;;
11500;SDS011;5807;51.606;7.624;2022-12-07T00:03:19;39.77;;;24.60;;
11500;SDS011;5807;51.606;7.624;2022-12-07T00:05:45;41.53;;;26.30;;
11500;SDS011;5807;51.606;7.624;2022-12-07T00:08:12;41.20;;;24.33;;
11500;SDS011;5807;51.606;7.624;2022-12-07T00:10:39;38.83;;;25.20;;
11500;SDS011;5807;51.606;7.624;2022-12-07T00:13:06;37.87;;;23.90;;
11500;SDS011;5807;51.606;7.624;2022-12-07T00:15:34;40.97;;;24.63;;
11500;SDS011;5807;51.606;7.624;2022-12-07T00:18:01;36.57;;;24.87;;
11500;SDS011;5807;51.606;7.624;2022-12-07T00:20:28;41.23;;;25.00;;
11500;SDS011;5807;51.606;7.624;2022-12-07T00:22:56;42.23;;;24.80;;
11500;SDS011;5807;51.606;7.624;2022-12-07T00:25:22;38.93;;;24.50;;
11500;SDS011;5807;51.606;7.624;2022-12-07T00:27:51;33.70;;;20.57;;
11500;SDS011;5807;51.606;7.624;2022-12-07T00:30:20;36.23;;;21.40;;
11500;SDS011;5807;51.606;7.624;2022-12-07T00:32:49;37.50;;;23.13;;
11500;SDS011;5807;51.606;7.624;2022-12-07T00:35:15;39.17;;;23.03;;
11500;SDS011;5807;51.606;7.624;2022-12-07T00:37:43;34.33;;;22.07;;
11500;SDS011;5807;51.606;7.624;2022-12-07T00:40:10;40.33;;;23.13;;
11500;SDS011;5807;51.606;7.624;2022-12-07T00:42:37;31.33;;;21.87;;
11500;SDS011;5807;51.606;7.624;2022-12-07T00:45:04;37.57;;;23.73;;
11500;SDS011;5807;51.606;7.624;2022-12-07T00:47:32;32.93;;;21.47;;
11500;SDS011;5807;51.606;7.624;2022-12-07T00:50:00;35.63;;;22.00;;
11500;SDS011;5807;51.606;7.624;2022-12-07T00:52:27;37.03;;;22.67;;
11500;SDS011;5807;51.606;7.624;2022-12-07T00:54:54;33.50;;;22.43;;
11500;SDS011;5807;51.606;7.624;2022-12-07T00:57:20;32.83;;;21.97;;
11500;SDS011;5807;51.606;7.624;2022-12-07T00:59:47;33.20;;;22.27;;
11500;SDS011;5807;51.606;7.624;2022-12-07T01:02:14;38.43;;;24.83;;
11500;SDS011;5807;51.606;7.624;2022-12-07T01:04:41;42.70;;;23.70;;
11500;SDS011;5807;51.606;7.624;2022-12-07T01:07:09;37.70;;;23.20;;
11500;SDS011;5807;51.606;7.624;2022-12-07T01:09:36;33.67;;;22.97;;
11500;SDS011;5807;51.606;7.624;2022-12-07T01:12:03;37.67;;;23.63;;
11500;SDS011;5807;51.606;7.624;2022-12-07T01:14:30;38.63;;;25.23;;
11500;SDS011;5807;51.606;7.624;2022-12-07T01:16:57;39.63;;;24.37;;
11500;SDS011;5807;51.606;7.624;2022-12-07T01:21:56;36.80;;;24.33;;
11500;SDS011;5807;51.606;7.624;2022-12-07T01:24:24;40.00;;;24.90;;
11500;SDS011;5807;51.606;7.624;2022-12-07T01:26:52;41.20;;;24.10;;
11500;SDS011;5807;51.606;7.624;2022-12-07T01:29:18;38.30;;;24.60;;
11500;SDS011;5807;51.606;7.624;2022-12-07T01:31:47;36.90;;;24.67;;
11500;SDS011;5807;51.606;7.624;2022-12-07T01:34:15;38.60;;;24.73;;
11500;SDS011;5807;51.606;7.624;2022-12-07T01:36:42;38.93;;;25.70;;
11500;SDS011;5807;51.606;7.624;2022-12-07T01:39:09;37.97;;;25.70;;
11500;SDS011;5807;51.606;7.624;2022-12-07T01:41:39;39.33;;;25.60;;
11500;SDS011;5807;51.606;7.624;2022-12-07T01:44:18;40.53;;;26.20;;
11500;SDS011;5807;51.606;7.624;2022-12-07T01:46:47;42.50;;;25.37;;
11500;SDS011;5807;51.606;7.624;2022-12-07T01:49:23;44.93;;;25.00;;
11500;SDS011;5807;51.606;7.624;2022-12-07T01:51:55;37.83;;;25.10;;
11500;SDS011;5807;51.606;7.624;2022-12-07T01:54:26;39.13;;;24.23;;
11500;SDS011;5807;51.606;7.624;2022-12-07T01:56:54;38.67;;;25.03;;
11500;SDS011;5807;51.606;7.624;2022-12-07T01:59:24;35.73;;;23.77;;
11500;SDS011;5807;51.606;7.624;2022-12-07T02:01:52;36.83;;;24.40;;
11500;SDS011;5807;51.606;7.624;2022-12-07T02:04:20;38.33;;;23.93;;
11500;SDS011;5807;51.606;7.624;2022-12-07T02:06:48;34.50;;;23.67;;
11500;SDS011;5807;51.606;7.624;2022-12-07T02:09:16;37.47;;;24.17;;
11500;SDS011;5807;51.606;7.624;2022-12-07T02:11:43;37.60;;;22.43;;
11500;SDS011;5807;51.606;7.624;2022-12-07T02:14:11;44.27;;;25.20;;
11500;SDS011;5807;51.606;7.624;2022-12-07T02:16:40;41.23;;;24.93;;
11500;SDS011;5807;51.606;7.624;2022-12-07T02:19:24;36.63;;;22.20;;
11500;SDS011;5807;51.606;7.624;2022-12-07T02:22:14;36.67;;;22.67;;
11500;SDS011;5807;51.606;7.624;2022-12-07T02:24:53;38.90;;;23.73;;
11500;SDS011;5807;51.606;7.624;2022-12-07T02:27:28;37.67;;;22.93;;
11500;SDS011;5807;51.606;7.624;2022-12-07T02:30:06;35.30;;;23.37;;
11500;SDS011;5807;51.606;7.624;2022-12-07T02:32:43;35.13;;;23.57;;
11500;SDS011;5807;51.606;7.624;2022-12-07T02:35:17;36.80;;;23.43;;
11500;SDS011;5807;51.606;7.624;2022-12-07T02:37:48;33.27;;;22.97;;
11500;SDS011;5807;51.606;7.624;2022-12-07T02:40:23;31.60;;;21.00;;
11500;SDS011;5807;51.606;7.624;2022-12-07T02:42:55;31.57;;;21.63;;
11500;SDS011;5807;51.606;7.624;2022-12-07T02:45:28;34.93;;;23.40;;
11500;SDS011;5807;51.606;7.624;2022-12-07T02:47:58;36.93;;;23.03;;
11500;SDS011;5807;51.606;7.624;2022-12-07T02:50:26;32.53;;;23.07;;
11500;SDS011;5807;51.606;7.624;2022-12-07T02:52:54;36.47;;;22.57;;
11500;SDS011;5807;51.606;7.624;2022-12-07T02:55:22;37.50;;;24.73;;
11500;SDS011;5807;51.606;7.624;2022-12-07T02:58:03;39.70;;;26.40;;
11500;SDS011;5807;51.606;7.624;2022-12-07T03:00:44;35.83;;;22.40;;
11500;SDS011;5807;51.606;7.624;2022-12-07T03:03:18;32.83;;;23.63;;
11500;SDS011;5807;51.606;7.624;2022-12-07T03:05:49;35.03;;;24.50;;
11500;SDS011;5807;51.606;7.624;2022-12-07T03:08:26;35.07;;;22.57;;
11500;SDS011;5807;51.606;7.624;2022-12-07T03:11:00;36.37;;;22.63;;
11500;SDS011;5807;51.606;7.624;2022-12-07T03:13:30;35.13;;;22.30;;
11500;SDS011;5807;51.606;7.624;2022-12-07T03:16:05;36.83;;;22.80;;
11500;SDS011;5807;51.606;7.624;2022-12-07T03:18:37;35.27;;;22.77;;
11500;SDS011;5807;51.606;7.624;2022-12-07T03:21:09;34.53;;;22.10;;
11500;SDS011;5807;51.606;7.624;2022-12-07T03:23:42;34.70;;;23.70;;
11500;SDS011;5807;51.606;7.624;2022-12-07T03:26:15;35.17;;;23.33;;
11500;SDS011;5807;51.606;7.624;2022-12-07T03:28:47;35.00;;;22.80;;
11500;SDS011;5807;51.606;7.624;2022-12-07T03:31:19;35.87;;;22.87;;
11500;SDS011;5807;51.606;7.624;2022-12-07T03:33:49;36.20;;;21.93;;
11500;SDS011;5807;51.606;7.624;2022-12-07T03:36:20;33.63;;;22.43;;
11500;SDS011;5807;51.606;7.624;2022-12-07T03:38:53;30.50;;;20.87;;
11500;SDS011;5807;51.606;7.624;2022-12-07T03:41:25;33.03;;;20.33;;
11500;SDS011;5807;51.606;7.624;2022-12-07T03:43:55;31.60;;;20.53;;
11500;SDS011;5807;51.606;7.624;2022-12-07T03:46:27;34.97;;;22.07;;
11500;SDS011;5807;51.606;7.624;2022-12-07T03:49:04;32.67;;;23.17;;
11500;SDS011;5807;51.606;7.624;2022-12-07T03:51:37;29.37;;;19.70;;
11500;SDS011;5807;51.606;7.624;2022-12-07T03:54:10;31.37;;;21.10;;
11500;SDS011;5807;51.606;7.624;2022-12-07T03:56:41;37.23;;;21.47;;
11500;SDS011;5807;51.606;7.624;2022-12-07T03:59:10;37.90;;;23.47;;
11500;SDS011;5807;51.606;7.624;2022-12-07T04:01:39;32.33;;;21.90;;
11500;SDS011;5807;51.606;7.624;2022-12-07T04:04:08;35.63;;;21.63;;
11500;SDS011;5807;51.606;7.624;2022-12-07T04:06:35;35.97;;;22.87;;
11500;SDS011;5807;51.606;7.624;2022-12-07T04:09:01;33.03;;;22.17;;
11500;SDS011;5807;51.606;7.624;2022-12-07T04:11:29;33.80;;;21.33;;
11500;SDS011;5807;51.606;7.624;2022-12-07T04:13:56;33.37;;;21.93;;
11500;SDS011;5807;51.606;7.624;2022-12-07T04:16:41;33.17;;;19.37;;
11500;SDS011;5807;51.606;7.624;2022-12-07T04:19:08;34.30;;;20.87;;
11500;SDS011;5807;51.606;7.624;2022-12-07T04:21:35;34.97;;;22.57;;
11500;SDS011;5807;51.606;7.624;2022-12-07T04:24:02;33.27;;;22.13;;
11500;SDS011;5807;51.606;7.624;2022-12-07T04:26:29;31.87;;;20.90;;
11500;SDS011;5807;51.606;7.624;2022-12-07T04:28:56;34.40;;;21.80;;
11500;SDS011;5807;51.606;7.624;2022-12-07T04:31:23;34.97;;;22.70;;
11500;SDS011;5807;51.606;7.624;2022-12-07T04:33:51;27.47;;;19.07;;
11500;SDS011;5807;51.606;7.624;2022-12-07T04:36:18;35.50;;;22.17;;
11500;SDS011;5807;51.606;7.624;2022-12-07T04:38:45;35.03;;;21.63;;
11500;SDS011;5807;51.606;7.624;2022-12-07T04:41:12;40.60;;;22.77;;
11500;SDS011;5807;51.606;7.624;2022-12-07T04:43:39;31.93;;;21.13;;
11500;SDS011;5807;51.606;7.624;2022-12-07T04:46:06;34.27;;;21.07;;
11500;SDS011;5807;51.606;7.624;2022-12-07T04:48:37;30.10;;;20.90;;
11500;SDS011;5807;51.606;7.624;2022-12-07T04:51:06;34.33;;;22.50;;
11500;SDS011;5807;51.606;7.624;2022-12-07T04:53:32;41.23;;;22.53;;
11500;SDS011;5807;51.606;7.624;2022-12-07T04:55:59;39.43;;;22.63;;
11500;SDS011;5807;51.606;7.624;2022-12-07T04:58:26;34.90;;;21.23;;
11500;SDS011;5807;51.606;7.624;2022-12-07T05:00:54;29.73;;;19.40;;
11500;SDS011;5807;51.606;7.624;2022-12-07T05:03:21;36.73;;;21.97;;
11500;SDS011;5807;51.606;7.624;2022-12-07T05:05:48;36.07;;;21.33;;
11500;SDS011;5807;51.606;7.624;2022-12-07T05:08:16;36.43;;;20.53;;
11500;SDS011;5807;51.606;7.624;2022-12-07T05:10:43;35.63;;;21.17;;
11500;SDS011;5807;51.606;7.624;2022-12-07T05:13:09;34.87;;;20.70;;
11500;SDS011;5807;51.606;7.624;2022-12-07T05:15:36;35.17;;;21.07;;
11500;SDS011;5807;51.606;7.624;2022-12-07T05:18:03;31.17;;;21.33;;
11500;SDS011;5807;51.606;7.624;2022-12-07T05:20:30;34.70;;;22.20;;
11500;SDS011;5807;51.606;7.624;2022-12-07T05:22:57;30.80;;;20.70;;
11500;SDS011;5807;51.606;7.624;2022-12-07T05:25:25;33.43;;;19.40;;
11500;SDS011;5807;51.606;7.624;2022-12-07T05:27:53;31.03;;;19.57;;
11500;SDS011;5807;51.606;7.624;2022-12-07T05:30:21;35.23;;;21.00;;
11500;SDS011;5807;51.606;7.624;2022-12-07T05:32:48;31.40;;;19.30;;
11500;SDS011;5807;51.606;7.624;2022-12-07T05:35:15;33.57;;;21.20;;
11500;SDS011;5807;51.606;7.624;2022-12-07T05:37:41;34.27;;;21.80;;
11500;SDS011;5807;51.606;7.624;2022-12-07T05:40:11;29.77;;;20.27;;
11500;SDS011;5807;51.606;7.624;2022-12-07T05:42:41;30.73;;;19.77;;
11500;SDS011;5807;51.606;7.624;2022-12-07T05:45:08;31.93;;;20.20;;
11500;SDS011;5807;51.606;7.624;2022-12-07T05:47:35;28.80;;;19.53;;
11500;SDS011;5807;51.606;7.624;2022-12-07T05:50:02;31.20;;;20.43;;
11500;SDS011;5807;51.606;7.624;2022-12-07T05:52:31;29.93;;;18.23;;
11500;SDS011;5807;51.606;7.624;2022-12-07T05:54:58;31.57;;;19.73;;
11500;SDS011;5807;51.606;7.624;2022-12-07T05:57:24;30.47;;;19.90;;
11500;SDS011;5807;51.606;7.624;2022-12-07T05:59:53;28.43;;;19.27;;
11500;SDS011;5807;51.606;7.624;2022-12-07T06:02:26;34.97;;;19.97;;
11500;SDS011;5807;51.606;7.624;2022-12-07T06:04:53;33.87;;;18.30;;
11500;SDS011;5807;51.606;7.624;2022-12-07T06:07:20;31.33;;;18.73;;
11500;SDS011;5807;51.606;7.624;2022-12-07T06:09:47;34.40;;;20.77;;
11500;SDS011;5807;51.606;7.624;2022-12-07T06:12:14;34.53;;;19.63;;
11500;SDS011;5807;51.606;7.624;2022-12-07T06:15:00;29.10;;;18.80;;
11500;SDS011;5807;51.606;7.624;2022-12-07T06:17:27;28.63;;;18.53;;
11500;SDS011;5807;51.606;7.624;2022-12-07T06:19:54;30.10;;;19.30;;
11500;SDS011;5807;51.606;7.624;2022-12-07T06:22:21;29.10;;;17.63;;
11500;SDS011;5807;51.606;7.624;2022-12-07T06:24:48;30.03;;;18.93;;
11500;SDS011;5807;51.606;7.624;2022-12-07T06:27:15;30.50;;;19.13;;
11500;SDS011;5807;51.606;7.624;2022-12-07T06:29:42;30.53;;;20.23;;
11500;SDS011;5807;51.606;7.624;2022-12-07T06:32:10;28.23;;;18.57;;
11500;SDS011;5807;51.606;7.624;2022-12-07T06:37:59;31.40;;;18.60;;
11500;SDS011;5807;51.606;7.624;2022-12-07T06:40:26;43.00;;;19.67;;
11500;SDS011;5807;51.606;7.624;2022-12-07T06:42:53;33.13;;;18.23;;
11500;SDS011;5807;51.606;7.624;2022-12-07T06:45:20;28.63;;;18.23;;
11500;SDS011;5807;51.606;7.624;2022-12-07T06:47:48;26.73;;;18.77;;
11500;SDS011;5807;51.606;7.624;2022-12-07T06:50:15;29.13;;;18.20;;
11500;SDS011;5807;51.606;7.624;2022-12-07T06:52:42;31.67;;;19.47;;
11500;SDS011;5807;51.606;7.624;2022-12-07T06:55:09;28.53;;;19.10;;
11500;SDS011;5807;51.606;7.624;2022-12-07T06:57:36;34.20;;;19.67;;
11500;SDS011;5807;51.606;7.624;2022-12-07T07:00:03;29.20;;;19.87;;
11500;SDS011;5807;51.606;7.624;2022-12-07T07:02:33;26.60;;;19.20;;
11500;SDS011;5807;51.606;7.624;2022-12-07T07:05:01;34.30;;;19.87;;
11500;SDS011;5807;51.606;7.624;2022-12-07T07:07:28;33.97;;;19.83;;
11500;SDS011;5807;51.606;7.624;2022-12-07T07:09:58;28.93;;;18.70;;
11500;SDS011;5807;51.606;7.624;2022-12-07T07:12:25;30.90;;;19.37;;
11500;SDS011;5807;51.606;7.624;2022-12-07T07:14:52;32.90;;;19.47;;
11500;SDS011;5807;51.606;7.624;2022-12-07T07:17:19;34.67;;;20.90;;
11500;SDS011;5807;51.606;7.624;2022-12-07T07:19:46;30.33;;;19.23;;
11500;SDS011;5807;51.606;7.624;2022-12-07T07:22:14;38.00;;;20.40;;
11500;SDS011;5807;51.606;7.624;2022-12-07T07:24:41;40.77;;;20.77;;
11500;SDS011;5807;51.606;7.624;2022-12-07T07:27:08;32.40;;;18.70;;
11500;SDS011;5807;51.606;7.624;2022-12-07T07:29:35;28.63;;;18.30;;
11500;SDS011;5807;51.606;7.624;2022-12-07T07:32:02;33.00;;;20.10;;
11500;SDS011;5807;51.606;7.624;2022-12-07T07:34:30;29.13;;;17.80;;
11500;SDS011;5807;51.606;7.624;2022-12-07T07:36:57;29.70;;;17.70;;
11500;SDS011;5807;51.606;7.624;2022-12-07T07:39:35;30.10;;;18.13;;
11500;SDS011;5807;51.606;7.624;2022-12-07T07:42:02;30.47;;;18.17;;
11500;SDS011;5807;51.606;7.624;2022-12-07T07:44:29;33.80;;;18.87;;
11500;SDS011;5807;51.606;7.624;2022-12-07T07:46:56;28.07;;;19.47;;
11500;SDS011;5807;51.606;7.624;2022-12-07T07:49:24;33.00;;;18.63;;
11500;SDS011;5807;51.606;7.624;2022-12-07T07:51:52;33.07;;;20.27;;
11500;SDS011;5807;51.606;7.624;2022-12-07T07:54:19;36.30;;;20.50;;
11500;SDS011;5807;51.606;7.624;2022-12-07T07:56:48;30.30;;;18.77;;
11500;SDS011;5807;51.606;7.624;2022-12-07T07:59:15;32.90;;;19.73;;
11500;SDS011;5807;51.606;7.624;2022-12-07T08:01:41;31.63;;;20.33;;
11500;SDS011;5807;51.606;7.624;2022-12-07T08:04:08;30.63;;;20.40;;
11500;SDS011;5807;51.606;7.624;2022-12-07T08:06:36;28.67;;;18.40;;
11500;SDS011;5807;51.606;7.624;2022-12-07T08:09:03;33.20;;;18.70;;
11500;SDS011;5807;51.606;7.624;2022-12-07T08:11:30;26.03;;;17.27;;
11500;SDS011;5807;51.606;7.624;2022-12-07T08:14:00;30.67;;;18.33;;
11500;SDS011;5807;51.606;7.624;2022-12-07T08:16:29;27.43;;;18.10;;
11500;SDS011;5807;51.606;7.624;2022-12-07T08:18:59;36.03;;;19.43;;
11500;SDS011;5807;51.606;7.624;2022-12-07T08:21:29;27.47;;;16.87;;
11500;SDS011;5807;51.606;7.624;2022-12-07T08:23:56;28.03;;;17.27;;
11500;SDS011;5807;51.606;7.624;2022-12-07T08:26:24;32.27;;;18.23;;
11500;SDS011;5807;51.606;7.624;2022-12-07T08:28:55;29.73;;;19.90;;
11500;SDS011;5807;51.606;7.624;2022-12-07T08:31:23;36.33;;;20.47;;
11500;SDS011;5807;51.606;7.624;2022-12-07T08:33:52;30.07;;;18.90;;
11500;SDS011;5807;51.606;7.624;2022-12-07T08:36:20;30.40;;;17.70;;
11500;SDS011;5807;51.606;7.624;2022-12-07T08:38:48;31.70;;;19.27;;
11500;SDS011;5807;51.606;7.624;2022-12-07T08:41:15;24.53;;;16.80;;
11500;SDS011;5807;51.606;7.624;2022-12-07T08:46:35;28.53;;;17.87;;
11500;SDS011;5807;51.606;7.624;2022-12-07T08:49:10;26.53;;;18.10;;
11500;SDS011;5807;51.606;7.624;2022-12-07T08:51:42;28.70;;;17.23;;
11500;SDS011;5807;51.606;7.624;2022-12-07T08:54:13;26.93;;;16.03;;
11500;SDS011;5807;51.606;7.624;2022-12-07T08:56:59;25.07;;;17.10;;
11500;SDS011;5807;51.606;7.624;2022-12-07T08:59:31;26.70;;;17.50;;
11500;SDS011;5807;51.606;7.624;2022-12-07T09:02:08;24.60;;;15.67;;
11500;SDS011;5807;51.606;7.624;2022-12-07T09:04:43;23.50;;;15.57;;
11500;SDS011;5807;51.606;7.624;2022-12-07T09:07:10;26.00;;;16.03;;
11500;SDS011;5807;51.606;7.624;2022-12-07T09:09:38;29.60;;;17.67;;
11500;SDS011;5807;51.606;7.624;2022-12-07T09:12:05;27.90;;;15.87;;
11500;SDS011;5807;51.606;7.624;2022-12-07T09:14:35;30.90;;;17.03;;
11500;SDS011;5807;51.606;7.624;2022-12-07T09:17:11;22.83;;;15.17;;
11500;SDS011;5807;51.606;7.624;2022-12-07T09:19:41;25.43;;;16.40;;
11500;SDS011;5807;51.606;7.624;2022-12-07T09:22:10;23.93;;;15.43;;
11500;SDS011;5807;51.606;7.624;2022-12-07T09:24:38;27.20;;;15.47;;
11500;SDS011;5807;51.606;7.624;2022-12-07T09:27:08;25.37;;;15.90;;
11500;SDS011;5807;51.606;7.624;2022-12-07T09:29:44;27.47;;;16.60;;
11500;SDS011;5807;51.606;7.624;2022-12-07T09:32:19;24.20;;;15.33;;
11500;SDS011;5807;51.606;7.624;2022-12-07T09:34:46;27.90;;;17.37;;
11500;SDS011;5807;51.606;7.624;2022-12-07T09:37:14;30.27;;;16.23;;
11500;SDS011;5807;51.606;7.624;2022-12-07T09:39:44;25.30;;;16.73;;
11500;SDS011;5807;51.606;7.624;2022-12-07T09:42:15;27.30;;;16.13;;
11500;SDS011;5807;51.606;7.624;2022-12-07T09:44:57;23.60;;;15.30;;
11500;SDS011;5807;51.606;7.624;2022-12-07T09:47:30;25.57;;;16.47;;
11500;SDS011;5807;51.606;7.624;2022-12-07T09:50:00;28.47;;;16.13;;
11500;SDS011;5807;51.606;7.624;2022-12-07T09:52:31;28.43;;;18.40;;
11500;SDS011;5807;51.606;7.624;2022-12-07T09:54:58;28.93;;;18.10;;
11500;SDS011;5807;51.606;7.624;2022-12-07T09:57:27;27.13;;;17.30;;
11500;SDS011;5807;51.606;7.624;2022-12-07T09:59:56;21.80;;;13.90;;
11500;SDS011;5807;51.606;7.624;2022-12-07T10:02:44;22.60;;;14.47;;
11500;SDS011;5807;51.606;7.624;2022-12-07T10:05:14;25.17;;;16.43;;
11500;SDS011;5807;51.606;7.624;2022-12-07T10:07:42;24.67;;;13.17;;
11500;SDS011;5807;51.606;7.624;2022-12-07T10:10:12;18.83;;;12.80;;
11500;SDS011;5807;51.606;7.624;2022-12-07T10:12:54;16.63;;;12.53;;
11500;SDS011;5807;51.606;7.624;2022-12-07T10:15:23;17.33;;;12.40;;
11500;SDS011;5807;51.606;7.624;2022-12-07T10:17:52;20.63;;;12.10;;
11500;SDS011;5807;51.606;7.624;2022-12-07T10:20:21;23.13;;;12.97;;
11500;SDS011;5807;51.606;7.624;2022-12-07T10:22:57;16.00;;;11.03;;
11500;SDS011;5807;51.606;7.624;2022-12-07T10:25:32;15.90;;;9.33;;
11500;SDS011;5807;51.606;7.624;2022-12-07T10:28:01;18.10;;;8.50;;
11500;SDS011;5807;51.606;7.624;2022-12-07T10:30:46;12.83;;;8.70;;
11500;SDS011;5807;51.606;7.624;2022-12-07T10:33:21;12.37;;;7.17;;
11500;SDS011;5807;51.606;7.624;2022-12-07T10:35:55;17.37;;;7.50;;
11500;SDS011;5807;51.606;7.624;2022-12-07T10:38:22;9.00;;;6.87;;
11500;SDS011;5807;51.606;7.624;2022-12-07T10:41:02;10.57;;;7.13;;
11500;SDS011;5807;51.606;7.624;2022-12-07T10:43:30;9.97;;;6.97;;
11500;SDS011;5807;51.606;7.624;2022-12-07T10:46:07;9.40;;;7.07;;
11500;SDS011;5807;51.606;7.624;2022-12-07T10:48:50;16.43;;;8.27;;
11500;SDS011;5807;51.606;7.624;2022-12-07T10:51:26;12.47;;;6.70;;
11500;SDS011;5807;51.606;7.624;2022-12-07T10:54:15;9.47;;;6.10;;
11500;SDS011;5807;51.606;7.624;2022-12-07T10:56:54;15.93;;;6.47;;
11500;SDS011;5807;51.606;7.624;2022-12-07T10:59:37;9.67;;;5.93;;
11500;SDS011;5807;51.606;7.624;2022-12-07T11:02:24;6.37;;;5.40;;
11500;SDS011;5807;51.606;7.624;2022-12-07T11:05:04;11.77;;;5.53;;
11500;SDS011;5807;51.606;7.624;2022-12-07T11:07:41;10.10;;;5.70;;
11500;SDS011;5807;51.606;7.624;2022-12-07T11:10:15;9.23;;;6.47;;
11500;SDS011;5807;51.606;7.624;2022-12-07T11:12:49;8.53;;;5.47;;
11500;SDS011;5807;51.606;7.624;2022-12-07T11:15:26;6.53;;;4.83;;
11500;SDS011;5807;51.606;7.624;2022-12-07T11:18:00;12.40;;;4.80;;
11500;SDS011;5807;51.606;7.624;2022-12-07T11:20:37;8.27;;;4.77;;
11500;SDS011;5807;51.606;7.624;2022-12-07T11:23:12;5.30;;;4.37;;
11500;SDS011;5807;51.606;7.624;2022-12-07T11:25:49;5.87;;;4.33;;
11500;SDS011;5807;51.606;7.624;2022-12-07T11:28:25;8.17;;;5.20;;
11500;SDS011;5807;51.606;7.624;2022-12-07T11:31:06;6.60;;;4.50;;
11500;SDS011;5807;51.606;7.624;2022-12-07T11:33:40;6.43;;;4.30;;
11500;SDS011;5807;51.606;7.624;2022-12-07T11:36:19;9.33;;;4.87;;
11500;SDS011;5807;51.606;7.624;2022-12-07T11:41:54;7.00;;;4.93;;
11500;SDS011;5807;51.606;7.624;2022-12-07T11:44:30;5.67;;;4.20;;
11500;SDS011;5807;51.606;7.624;2022-12-07T11:47:01;5.43;;;4.07;;
11500;SDS011;5807;51.606;7.624;2022-12-07T11:49:37;3.87;;;3.43;;
11500;SDS011;5807;51.606;7.624;2022-12-07T11:52:13;7.07;;;5.63;;
11500;SDS011;5807;51.606;7.624;2022-12-07T11:54:46;12.87;;;5.63;;
11500;SDS011;5807;51.606;7.624;2022-12-07T11:57:20;6.80;;;4.07;;
11500;SDS011;5807;51.606;7.624;2022-12-07T11:59:52;4.23;;;3.83;;
11500;SDS011;5807;51.606;7.624;2022-12-07T12:02:28;8.30;;;4.07;;
11500;SDS011;5807;51.606;7.624;2022-12-07T12:05:05;4.90;;;4.30;;
11500;SDS011;5807;51.606;7.624;2022-12-07T12:07:41;6.53;;;4.30;;
11500;SDS011;5807;51.606;7.624;2022-12-07T12:10:14;7.27;;;4.30;;
11500;SDS011;5807;51.606;7.624;2022-12-07T12:12:57;6.83;;;4.30;;
11500;SDS011;5807;51.606;7.624;2022-12-07T12:15:38;6.70;;;3.70;;
11500;SDS011;5807;51.606;7.624;2022-12-07T12:18:34;5.10;;;3.50;;
11500;SDS011;5807;51.606;7.624;2022-12-07T12:24:15;6.77;;;4.20;;
11500;SDS011;5807;51.606;7.624;2022-12-07T12:26:48;8.47;;;4.83;;
11500;SDS011;5807;51.606;7.624;2022-12-07T12:29:20;9.30;;;4.07;;
11500;SDS011;5807;51.606;7.624;2022-12-07T12:32:04;9.07;;;4.27;;
11500;SDS011;5807;51.606;7.624;2022-12-07T12:34:37;6.00;;;4.27;;
11500;SDS011;5807;51.606;7.624;2022-12-07T12:55:15;5.30;;;3.70;;
11500;SDS011;5807;51.606;7.624;2022-12-07T12:57:48;5.10;;;2.50;;
11500;SDS011;5807;51.606;7.624;2022-12-07T13:03:53;4.13;;;2.80;;
11500;SDS011;5807;51.606;7.624;2022-12-07T13:06:34;5.23;;;2.80;;
11500;SDS011;5807;51.606;7.624;2022-12-07T13:09:03;9.33;;;3.10;;
11500;SDS011;5807;51.606;7.624;2022-12-07T13:11:32;4.70;;;3.10;;
11500;SDS011;5807;51.606;7.624;2022-12-07T13:17:09;3.70;;;2.80;;
11500;SDS011;5807;51.606;7.624;2022-12-07T13:22:36;5.97;;;3.50;;
11500;SDS011;5807;51.606;7.624;2022-12-07T13:25:07;4.80;;;3.57;;
11500;SDS011;5807;51.606;7.624;2022-12-07T13:27:37;6.17;;;3.70;;
11500;SDS011;5807;51.606;7.624;2022-12-07T13:30:09;6.93;;;3.23;;
11500;SDS011;5807;51.606;7.624;2022-12-07T13:32:43;6.93;;;3.27;;
11500;SDS011;5807;51.606;7.624;2022-12-07T13:38:05;9.67;;;3.67;;
11500;SDS011;5807;51.606;7.624;2022-12-07T13:40:42;8.57;;;3.17;;
11500;SDS011;5807;51.606;7.624;2022-12-07T13:43:26;7.23;;;4.00;;
11500;SDS011;5807;51.606;7.624;2022-12-07T13:45:55;5.00;;;3.23;;
11500;SDS011;5807;51.606;7.624;2022-12-07T13:48:36;3.43;;;2.53;;
11500;SDS011;5807;51.606;7.624;2022-12-07T13:51:16;3.53;;;2.70;;
11500;SDS011;5807;51.606;7.624;2022-12-07T13:53:46;6.27;;;3.03;;
11500;SDS011;5807;51.606;7.624;2022-12-07T13:56:14;4.83;;;2.70;;
11500;SDS011;5807;51.606;7.624;2022-12-07T13:58:41;6.67;;;2.80;;
11500;SDS011;5807;51.606;7.624;2022-12-07T14:01:08;5.93;;;2.77;;
11500;SDS011;5807;51.606;7.624;2022-12-07T14:03:36;4.37;;;3.07;;
11500;SDS011;5807;51.606;7.624;2022-12-07T14:09:09;6.37;;;2.90;;
11500;SDS011;5807;51.606;7.624;2022-12-07T14:11:43;5.03;;;2.60;;
11500;SDS011;5807;51.606;7.624;2022-12-07T14:14:11;7.77;;;3.00;;
11500;SDS011;5807;51.606;7.624;2022-12-07T14:16:42;4.07;;;3.27;;
11500;SDS011;5807;51.606;7.624;2022-12-07T14:25:16;4.73;;;2.40;;
11500;SDS011;5807;51.606;7.624;2022-12-07T14:27:49;7.50;;;2.90;;
11500;SDS011;5807;51.606;7.624;2022-12-07T14:30:20;3.87;;;2.57;;
11500;SDS011;5807;51.606;7.624;2022-12-07T14:32:50;3.67;;;2.50;;
11500;SDS011;5807;51.606;7.624;2022-12-07T14:35:21;4.43;;;3.00;;
11500;SDS011;5807;51.606;7.624;2022-12-07T14:37:48;5.07;;;3.07;;
11500;SDS011;5807;51.606;7.624;2022-12-07T14:40:17;5.60;;;2.93;;
11500;SDS011;5807;51.606;7.624;2022-12-07T14:42:45;5.47;;;2.53;;
11500;SDS011;5807;51.606;7.624;2022-12-07T14:45:15;4.43;;;3.00;;
11500;SDS011;5807;51.606;7.624;2022-12-07T14:47:43;12.77;;;3.10;;
11500;SDS011;5807;51.606;7.624;2022-12-07T14:50:11;6.17;;;2.77;;
11500;SDS011;5807;51.606;7.624;2022-12-07T14:52:40;11.23;;;5.60;;
11500;SDS011;5807;51.606;7.624;2022-12-07T14:55:12;7.13;;;4.30;;
11500;SDS011;5807;51.606;7.624;2022-12-07T14:57:41;7.23;;;3.80;;
11500;SDS011;5807;51.606;7.624;2022-12-07T15:00:08;7.50;;;3.87;;
11500;SDS011;5807;51.606;7.624;2022-12-07T15:02:39;7.53;;;4.37;;
11500;SDS011;5807;51.606;7.624;2022-12-07T15:05:06;6.87;;;4.00;;
11500;SDS011;5807;51.606;7.624;2022-12-07T15:07:33;9.97;;;4.60;;
11500;SDS011;5807;51.606;7.624;2022-12-07T15:10:02;10.27;;;3.97;;
11500;SDS011;5807;51.606;7.624;2022-12-07T15:12:29;7.30;;;3.93;;
11500;SDS011;5807;51.606;7.624;2022-12-07T15:14:56;10.33;;;5.20;;
11500;SDS011;5807;51.606;7.624;2022-12-07T15:17:23;9.50;;;5.37;;
11500;SDS011;5807;51.606;7.624;2022-12-07T15:19:50;10.03;;;5.17;;
11500;SDS011;5807;51.606;7.624;2022-12-07T15:22:16;10.00;;;5.53;;
11500;SDS011;5807;51.606;7.624;2022-12-07T15:24:43;11.17;;;5.43;;
11500;SDS011;5807;51.606;7.624;2022-12-07T15:27:12;10.03;;;5.53;;
11500;SDS011;5807;51.606;7.624;2022-12-07T15:29:39;8.70;;;5.40;;
11500;SDS011;5807;51.606;7.624;2022-12-07T15:32:06;12.03;;;6.47;;
11500;SDS011;5807;51.606;7.624;2022-12-07T15:34:32;13.80;;;7.77;;
11500;SDS011;5807;51.606;7.624;2022-12-07T15:36:59;12.60;;;7.87;;
11500;SDS011;5807;51.606;7.624;2022-12-07T15:39:26;14.57;;;6.40;;
11500;SDS011;5807;51.606;7.624;2022-12-07T15:41:53;7.83;;;5.10;;
11500;SDS011;5807;51.606;7.624;2022-12-07T15:44:22;5.47;;;4.73;;
11500;SDS011;5807;51.606;7.624;2022-12-07T15:47:06;11.90;;;5.23;;
11500;SDS011;5807;51.606;7.624;2022-12-07T15:49:33;11.30;;;5.10;;
11500;SDS011;5807;51.606;7.624;2022-12-07T15:52:00;11.57;;;5.40;;
11500;SDS011;5807;51.606;7.624;2022-12-07T15:54:27;12.77;;;5.60;;